Ware, Massachusetts
Current Conditions -  °F | °C
As of 7:58 PM on Sunday 23 Nov 2014 (Local Time) from KCEF Reporting Station
Clear Clear  
Wind Chill: 38°   Ceiling: Unl
Heat Index: 43°   Visibility: 10mi
Dew Point: 29°   Wind: 9mph
Humidity: 58%   Direction: 180°S
Pressure: 30.11"   Gusts: NA
Location:  42.26°N, 72.24°W
Report Text: KCEF 240058Z 18008KT 10SM CLR 06/M01 A3011 RMK AO2A SLP204 T00621015
Loading
Personal Weather Stations






























Interactive Weather Map New forecast layout! Learn more

10-Day Weather Forecast

Advertisements
Track Severe Weather on mobile